createdAt,value
2022-09-24T00:02:06.788Z,11.00
2022-09-24T00:04:35.771Z,10.96
2022-09-24T00:07:03.813Z,10.79
2022-09-24T00:09:31.843Z,11.23
2022-09-24T00:12:00.851Z,11.41
2022-09-24T00:14:29.715Z,11.26
2022-09-24T00:16:57.652Z,10.77
2022-09-24T00:19:26.975Z,10.83
2022-09-24T00:21:55.026Z,11.25
2022-09-24T00:24:40.606Z,11.21
2022-09-24T00:27:08.569Z,11.11
2022-09-24T00:29:36.745Z,10.86
2022-09-24T00:32:06.192Z,11.26
2022-09-24T00:34:35.639Z,11.60
2022-09-24T00:37:03.715Z,11.50
2022-09-24T00:39:34.030Z,11.71
2022-09-24T00:42:02.026Z,11.65
2022-09-24T00:44:54.047Z,11.49
2022-09-24T00:47:27.785Z,11.44
2022-09-24T00:50:00.104Z,11.52
2022-09-24T00:52:30.261Z,11.16
2022-09-24T00:54:58.287Z,10.83
2022-09-24T00:57:28.850Z,11.08
2022-09-24T00:59:57.313Z,10.84
2022-09-24T01:02:25.363Z,11.08
2022-09-24T01:04:56.645Z,11.22
2022-09-24T01:07:26.424Z,11.21
2022-09-24T01:09:54.500Z,11.25
2022-09-24T01:12:28.277Z,11.02
2022-09-24T01:15:04.941Z,11.32
2022-09-24T01:17:37.897Z,10.84
2022-09-24T01:20:24.408Z,11.11
2022-09-24T01:23:04.232Z,11.32
2022-09-24T01:25:37.275Z,11.16
2022-09-24T01:28:14.633Z,11.25
2022-09-24T01:30:44.073Z,11.27
2022-09-24T01:33:17.019Z,11.07
2022-09-24T01:35:46.205Z,10.32
2022-09-24T01:38:16.052Z,10.55
2022-09-24T01:40:44.791Z,10.63
2022-09-24T01:43:14.583Z,10.56
2022-09-24T01:45:44.842Z,10.29
2022-09-24T01:48:13.313Z,10.53
2022-09-24T01:50:47.079Z,10.41
2022-09-24T01:53:17.718Z,10.27
2022-09-24T01:55:49.606Z,10.37
2022-09-24T01:58:22.280Z,10.48
2022-09-24T02:00:55.050Z,10.65
2022-09-24T02:03:25.255Z,10.57
2022-09-24T02:05:58.319Z,10.41
2022-09-24T02:08:30.388Z,10.46
2022-09-24T02:11:02.167Z,10.16
2022-09-24T02:13:32.295Z,10.27
2022-09-24T02:16:03.266Z,10.61
2022-09-24T02:18:35.655Z,10.73
2022-09-24T02:21:07.448Z,10.57
2022-09-24T02:23:37.520Z,10.60
2022-09-24T02:26:07.929Z,10.37
2022-09-24T02:28:35.933Z,10.43
2022-09-24T02:31:06.746Z,10.41
2022-09-24T02:33:53.853Z,10.24
2022-09-24T02:36:24.937Z,10.89
2022-09-24T02:38:52.961Z,10.61
2022-09-24T02:41:23.918Z,10.42
2022-09-24T02:43:51.914Z,10.63
2022-09-24T02:46:21.681Z,10.62
2022-09-24T02:48:49.757Z,10.29
2022-09-24T02:51:17.750Z,10.57
2022-09-24T02:53:45.682Z,10.60
2022-09-24T02:56:13.688Z,10.52
2022-09-24T02:58:43.073Z,10.60
2022-09-24T03:01:11.052Z,10.71
2022-09-24T03:03:40.872Z,10.30
2022-09-24T03:06:08.982Z,10.61
2022-09-24T03:08:37.012Z,10.18
2022-09-24T03:11:07.339Z,10.27
2022-09-24T03:13:35.306Z,10.59
2022-09-24T03:16:03.586Z,10.70
2022-09-24T03:18:31.597Z,10.30
2022-09-24T03:21:02.221Z,10.42
2022-09-24T03:23:30.236Z,10.32
2022-09-24T03:25:58.970Z,10.26
2022-09-24T03:28:27.512Z,10.27
2022-09-24T03:30:59.879Z,10.31
2022-09-24T03:33:28.537Z,10.21
2022-09-24T03:35:57.127Z,10.20
2022-09-24T03:38:26.947Z,10.21
2022-09-24T03:40:54.984Z,10.21
2022-09-24T03:43:23.159Z,10.16
2022-09-24T03:45:51.156Z,10.29
2022-09-24T03:48:19.962Z,10.51
2022-09-24T03:50:48.541Z,10.51
2022-09-24T03:53:16.747Z,10.44
2022-09-24T03:55:46.726Z,10.51
2022-09-24T03:58:15.508Z,10.64
2022-09-24T04:00:43.555Z,10.35
2022-09-24T04:03:11.587Z,10.21
2022-09-24T04:05:40.099Z,10.56
2022-09-24T04:08:10.171Z,10.71
2022-09-24T04:10:40.524Z,10.26
2022-09-24T04:13:09.829Z,10.03
2022-09-24T04:15:37.792Z,10.11
2022-09-24T04:18:05.881Z,10.20
2022-09-24T04:20:34.664Z,10.54
2022-09-24T04:23:03.251Z,10.62
2022-09-24T04:25:32.112Z,10.58
2022-09-24T04:28:01.767Z,10.50
2022-09-24T04:30:32.138Z,10.49
2022-09-24T04:33:03.015Z,10.50
2022-09-24T04:35:32.285Z,10.35
2022-09-24T04:38:00.429Z,10.41
2022-09-24T04:40:28.807Z,10.77
2022-09-24T04:42:56.807Z,10.78
2022-09-24T04:45:24.850Z,10.31
2022-09-24T04:47:57.290Z,10.24
2022-09-24T04:50:25.843Z,10.13
2022-09-24T04:52:54.170Z,9.92
2022-09-24T04:55:25.431Z,9.95
2022-09-24T04:57:53.475Z,9.94
2022-09-24T05:00:22.009Z,10.57
2022-09-24T05:02:59.008Z,10.10
2022-09-24T05:05:27.975Z,10.30
2022-09-24T05:07:58.505Z,9.98
2022-09-24T05:10:29.240Z,10.01
2022-09-24T05:12:57.212Z,10.20
2022-09-24T05:15:27.359Z,10.38
2022-09-24T05:17:56.669Z,10.55
2022-09-24T05:20:24.819Z,10.53
2022-09-24T05:22:52.816Z,10.34
2022-09-24T05:25:21.879Z,10.48
2022-09-24T05:27:49.825Z,10.30
2022-09-24T05:30:19.063Z,10.35
2022-09-24T05:32:52.129Z,10.30
2022-09-24T05:35:22.715Z,10.38
2022-09-24T05:37:53.191Z,11.14
2022-09-24T05:40:41.146Z,10.52
2022-09-24T05:43:09.239Z,10.27
2022-09-24T05:45:37.357Z,10.24
2022-09-24T05:48:05.773Z,10.70
2022-09-24T05:50:35.422Z,10.72
2022-09-24T05:53:03.503Z,11.34
2022-09-24T05:55:32.725Z,11.18
2022-09-24T05:58:04.387Z,10.61
2022-09-24T06:00:32.462Z,10.52
2022-09-24T06:03:04.120Z,10.41
2022-09-24T06:05:32.962Z,10.40
2022-09-24T06:08:02.719Z,10.38
2022-09-24T06:10:33.224Z,10.14
2022-09-24T06:13:01.575Z,10.14
2022-09-24T06:15:33.491Z,10.33
2022-09-24T06:18:01.649Z,10.15
2022-09-24T06:20:29.591Z,10.20
2022-09-24T06:22:59.931Z,10.29
2022-09-24T06:25:31.815Z,10.63
2022-09-24T06:28:01.248Z,10.94
2022-09-24T06:30:29.743Z,11.25
2022-09-24T06:33:02.737Z,11.45
2022-09-24T06:35:30.696Z,11.63
2022-09-24T06:37:58.668Z,11.49
2022-09-24T06:40:32.677Z,11.77
2022-09-24T06:43:06.331Z,12.08
2022-09-24T06:45:34.601Z,12.13
2022-09-24T06:48:05.912Z,11.46
2022-09-24T06:50:34.942Z,11.67
2022-09-24T06:53:05.498Z,12.09
2022-09-24T06:55:33.938Z,12.27
2022-09-24T06:58:07.282Z,12.39
2022-09-24T07:00:35.827Z,12.25
2022-09-24T07:03:03.927Z,11.73
2022-09-24T07:05:31.998Z,12.09
2022-09-24T07:07:59.998Z,11.99
2022-09-24T07:10:31.318Z,11.91
2022-09-24T07:12:59.295Z,12.02
2022-09-24T07:15:28.624Z,11.99
2022-09-24T07:17:57.135Z,12.34
2022-09-24T07:20:28.027Z,12.37
2022-09-24T07:22:56.659Z,11.95
2022-09-24T07:25:25.084Z,11.95
2022-09-24T07:27:53.059Z,12.02
2022-09-24T07:30:21.061Z,12.74
2022-09-24T07:32:54.958Z,12.52
2022-09-24T07:35:23.595Z,12.53
2022-09-24T07:37:57.337Z,12.39
2022-09-24T07:40:26.187Z,12.42
2022-09-24T07:42:55.152Z,12.38
2022-09-24T07:45:23.964Z,12.76
2022-09-24T07:48:02.108Z,12.87
2022-09-24T07:50:31.036Z,13.12
2022-09-24T07:53:01.348Z,13.09
2022-09-24T07:55:31.759Z,12.91
2022-09-24T07:57:59.840Z,13.20
2022-09-24T08:00:27.870Z,12.94
2022-09-24T08:02:58.219Z,13.12
2022-09-24T08:05:27.918Z,13.00
2022-09-24T08:07:57.000Z,12.76
2022-09-24T08:10:26.322Z,13.46
2022-09-24T08:12:54.658Z,13.35
2022-09-24T08:15:23.205Z,13.75
2022-09-24T08:17:51.533Z,13.91
2022-09-24T08:20:19.560Z,13.06
2022-09-24T08:22:49.236Z,13.35
2022-09-24T08:25:17.282Z,13.83
2022-09-24T08:27:47.349Z,13.75
2022-09-24T08:30:15.364Z,13.02
2022-09-24T08:32:47.601Z,12.91
2022-09-24T08:35:16.357Z,12.80
2022-09-24T08:37:44.336Z,12.81
2022-09-24T08:40:18.683Z,12.70
2022-09-24T08:42:50.875Z,12.97
2022-09-24T08:45:36.718Z,13.26
2022-09-24T08:48:07.519Z,13.21
2022-09-24T08:50:39.455Z,13.25
2022-09-24T08:53:12.933Z,13.18
2022-09-24T08:55:44.096Z,13.80
2022-09-24T08:58:29.687Z,13.77
2022-09-24T09:01:00.243Z,14.65
2022-09-24T09:03:35.918Z,14.63
2022-09-24T09:06:05.001Z,14.39
2022-09-24T09:09:05.290Z,14.19
2022-09-24T09:11:29.195Z,14.56
2022-09-24T09:13:59.652Z,14.74
2022-09-24T09:16:32.440Z,14.48
2022-09-24T09:19:04.635Z,14.67
2022-09-24T09:21:37.935Z,14.38
2022-09-24T09:24:07.413Z,14.19
2022-09-24T09:26:36.761Z,13.80
2022-09-24T09:29:07.126Z,14.48
2022-09-24T09:31:39.938Z,14.52
2022-09-24T09:34:21.116Z,14.18
2022-09-24T09:36:56.630Z,14.70
2022-09-24T09:39:33.171Z,15.25
2022-09-24T09:42:07.861Z,15.04
2022-09-24T09:44:41.393Z,15.29
2022-09-24T09:47:16.569Z,15.60
2022-09-24T09:49:48.322Z,14.58
2022-09-24T09:52:19.413Z,15.03
2022-09-24T09:54:48.573Z,14.65
2022-09-24T09:57:20.174Z,14.45
2022-09-24T09:59:49.753Z,14.52
2022-09-24T10:02:23.290Z,14.44
2022-09-24T10:04:54.244Z,14.65
2022-09-24T10:07:22.841Z,14.88
2022-09-24T10:09:59.886Z,15.43
2022-09-24T10:12:30.241Z,15.21
2022-09-24T10:14:59.441Z,15.25
2022-09-24T10:17:29.895Z,15.56
2022-09-24T10:19:57.928Z,15.46
2022-09-24T10:22:28.859Z,15.37
2022-09-24T10:24:59.804Z,15.96
2022-09-24T10:27:32.311Z,16.52
2022-09-24T10:30:19.501Z,15.39
2022-09-24T10:32:48.831Z,15.93
2022-09-24T10:35:21.688Z,16.41
2022-09-24T10:37:53.578Z,16.03
2022-09-24T10:40:24.276Z,15.65
2022-09-24T10:43:00.928Z,15.70
2022-09-24T10:45:36.913Z,15.48
2022-09-24T10:48:12.282Z,15.48
2022-09-24T10:50:46.699Z,15.51
2022-09-24T10:53:15.693Z,15.63
2022-09-24T10:55:49.997Z,15.80
2022-09-24T10:58:28.244Z,15.71
2022-09-24T11:01:03.253Z,15.52
2022-09-24T11:03:55.108Z,16.11
2022-09-24T11:06:32.292Z,16.08
2022-09-24T11:09:07.152Z,15.97
2022-09-24T11:11:42.365Z,16.06
2022-09-24T11:14:21.233Z,16.38
2022-09-24T11:17:07.155Z,16.19
2022-09-24T11:19:47.121Z,15.86
2022-09-24T11:22:20.676Z,16.24
2022-09-24T11:25:04.644Z,17.21
2022-09-24T11:27:42.899Z,16.42
2022-09-24T11:30:15.816Z,15.66
2022-09-24T11:32:52.326Z,15.93
2022-09-24T11:35:27.238Z,16.68
2022-09-24T11:38:00.330Z,15.92
2022-09-24T11:40:38.766Z,15.81
2022-09-24T11:43:16.468Z,16.25
2022-09-24T11:45:53.918Z,16.39
2022-09-24T11:48:34.783Z,16.17
2022-09-24T11:51:10.702Z,15.59
2022-09-24T11:53:41.154Z,15.65
2022-09-24T11:56:14.269Z,15.31
2022-09-24T11:58:45.373Z,15.08
2022-09-24T12:01:17.052Z,14.94
2022-09-24T12:03:48.102Z,14.97
2022-09-24T12:06:18.998Z,14.91
2022-09-24T12:08:49.619Z,14.94
2022-09-24T12:11:20.737Z,14.82
2022-09-24T12:13:52.178Z,14.85
2022-09-24T12:16:23.075Z,14.79
2022-09-24T12:18:55.748Z,14.86
2022-09-24T12:21:28.019Z,14.71
2022-09-24T12:24:03.325Z,14.90
2022-09-24T12:26:32.533Z,15.08
2022-09-24T12:29:20.860Z,14.93
2022-09-24T12:32:13.628Z,14.55
2022-09-24T12:34:45.561Z,15.20
2022-09-24T12:37:16.735Z,14.78
2022-09-24T12:39:48.695Z,14.84
2022-09-24T12:42:20.119Z,15.24
2022-09-24T12:44:50.750Z,14.92
2022-09-24T12:47:21.901Z,15.05
2022-09-24T12:49:52.367Z,15.39
2022-09-24T12:52:25.533Z,15.21
2022-09-24T12:54:59.036Z,15.61
2022-09-24T12:57:28.723Z,15.65
2022-09-24T12:59:57.955Z,16.11
2022-09-24T13:02:29.339Z,16.70
2022-09-24T13:05:17.422Z,16.55
2022-09-24T13:07:55.861Z,16.63
2022-09-24T13:10:24.967Z,16.19
2022-09-24T13:12:53.073Z,16.29
2022-09-24T13:15:28.381Z,16.03
2022-09-24T13:18:06.048Z,15.96
2022-09-24T13:20:36.138Z,16.09
2022-09-24T13:23:14.458Z,15.75
2022-09-24T13:25:42.570Z,15.46
2022-09-24T13:28:25.266Z,15.53
2022-09-24T13:30:56.509Z,15.45
2022-09-24T13:33:31.903Z,15.30
2022-09-24T13:36:06.304Z,15.58
2022-09-24T13:38:36.340Z,16.02
2022-09-24T13:41:06.896Z,16.28
2022-09-24T13:43:39.605Z,16.22
2022-09-24T13:46:11.544Z,16.21
2022-09-24T13:48:43.358Z,16.54
2022-09-24T13:51:12.932Z,16.52
2022-09-24T13:53:43.140Z,15.86
2022-09-24T13:56:14.257Z,16.17
2022-09-24T13:58:43.748Z,16.23
2022-09-24T14:01:13.451Z,16.24
2022-09-24T14:03:43.652Z,15.41
2022-09-24T14:06:12.971Z,15.74
2022-09-24T14:08:42.445Z,15.51
2022-09-24T14:11:16.494Z,15.53
2022-09-24T14:13:45.814Z,15.82
2022-09-24T14:16:15.772Z,15.69
2022-09-24T14:18:45.758Z,15.82
2022-09-24T14:21:16.026Z,15.95
2022-09-24T14:23:48.751Z,15.83
2022-09-24T14:26:23.099Z,15.97
2022-09-24T14:28:51.250Z,15.70
2022-09-24T14:31:19.395Z,15.76
2022-09-24T14:33:48.858Z,15.73
2022-09-24T14:36:17.133Z,15.78
2022-09-24T14:38:53.608Z,16.26
2022-09-24T14:41:23.813Z,16.32
2022-09-24T14:43:56.146Z,16.21
2022-09-24T14:46:27.361Z,16.09
2022-09-24T14:49:06.478Z,16.43
2022-09-24T14:51:36.768Z,16.13
2022-09-24T14:54:19.950Z,15.86
2022-09-24T14:56:48.008Z,15.81
2022-09-24T14:59:17.680Z,15.71
2022-09-24T15:01:45.926Z,15.63
2022-09-24T15:04:21.411Z,15.61
2022-09-24T15:06:49.453Z,15.88
2022-09-24T15:09:25.003Z,15.68
2022-09-24T15:11:55.292Z,15.55
2022-09-24T15:14:32.850Z,15.35
2022-09-24T15:17:10.394Z,15.41
2022-09-24T15:19:43.877Z,15.38
2022-09-24T15:22:11.896Z,15.59
2022-09-24T15:24:39.925Z,16.01
2022-09-24T15:27:16.108Z,15.91
2022-09-24T15:29:44.144Z,16.24
2022-09-24T15:32:15.448Z,16.16
2022-09-24T15:34:44.977Z,16.12
2022-09-24T15:37:13.969Z,15.78
2022-09-24T15:39:48.463Z,15.78
2022-09-24T15:42:17.041Z,15.57
2022-09-24T15:44:45.869Z,15.55
2022-09-24T15:47:16.297Z,15.55
2022-09-24T15:49:45.855Z,15.67
2022-09-24T15:52:15.623Z,15.57
2022-09-24T15:54:43.623Z,15.66
2022-09-24T15:57:13.055Z,15.91
2022-09-24T15:59:41.065Z,16.01
2022-09-24T16:02:16.682Z,15.85
2022-09-24T16:04:46.265Z,15.55
2022-09-24T16:07:14.392Z,15.35
2022-09-24T16:09:45.121Z,15.27
2022-09-24T16:12:14.902Z,15.44
2022-09-24T16:14:45.330Z,15.75
2022-09-24T16:17:13.357Z,15.59
2022-09-24T16:19:43.411Z,15.71
2022-09-24T16:22:15.714Z,15.65
2022-09-24T16:24:46.188Z,15.56
2022-09-24T16:27:14.238Z,15.92
2022-09-24T16:29:42.231Z,15.94
2022-09-24T16:32:10.626Z,15.80
2022-09-24T16:34:38.602Z,15.61
2022-09-24T16:37:06.660Z,15.32
2022-09-24T16:39:36.205Z,15.40
2022-09-24T16:42:04.377Z,15.30
2022-09-24T16:44:34.647Z,15.23
2022-09-24T16:47:02.682Z,14.94
2022-09-24T16:49:30.721Z,14.87
2022-09-24T16:51:58.717Z,14.98
2022-09-24T16:54:29.472Z,15.12
2022-09-24T16:56:58.980Z,15.00
2022-09-24T16:59:27.065Z,14.90
2022-09-24T17:01:55.131Z,14.72
2022-09-24T17:04:23.196Z,14.68
2022-09-24T17:06:51.188Z,14.59
2022-09-24T17:09:36.747Z,14.74
2022-09-24T17:12:06.368Z,14.70
2022-09-24T17:14:34.370Z,14.83
2022-09-24T17:17:02.395Z,14.49
2022-09-24T17:19:30.348Z,14.67
2022-09-24T17:21:58.933Z,15.02
2022-09-24T17:24:26.968Z,14.69
2022-09-24T17:26:56.514Z,14.61
2022-09-24T17:29:31.230Z,14.45
2022-09-24T17:31:59.800Z,14.40
2022-09-24T17:34:28.054Z,14.25
2022-09-24T17:36:56.473Z,14.50
2022-09-24T17:39:24.698Z,14.55
2022-09-24T17:41:52.712Z,14.67
2022-09-24T17:44:20.735Z,14.71
2022-09-24T17:46:50.122Z,14.47
2022-09-24T17:49:18.291Z,14.55
2022-09-24T17:51:49.404Z,14.42
2022-09-24T17:54:18.950Z,14.35
2022-09-24T17:56:46.971Z,14.51
2022-09-24T17:59:15.452Z,14.46
2022-09-24T18:01:46.270Z,14.48
2022-09-24T18:04:16.795Z,14.54
2022-09-24T18:06:45.392Z,14.39
2022-09-24T18:09:14.120Z,14.40
2022-09-24T18:11:45.464Z,14.48
2022-09-24T18:14:15.429Z,14.59
2022-09-24T18:16:43.675Z,14.38
2022-09-24T18:19:12.289Z,14.30
2022-09-24T18:21:41.855Z,14.38
2022-09-24T18:24:10.636Z,14.28
2022-09-24T18:26:40.177Z,14.50
2022-09-24T18:29:10.215Z,14.36
2022-09-24T18:31:39.007Z,14.31
2022-09-24T18:34:08.415Z,14.31
2022-09-24T18:36:39.827Z,14.56
2022-09-24T18:39:12.045Z,14.51
2022-09-24T18:41:40.113Z,14.43
2022-09-24T18:44:09.005Z,14.96
2022-09-24T18:46:37.337Z,14.71
2022-09-24T18:49:06.286Z,14.52
2022-09-24T18:51:35.224Z,14.42
2022-09-24T18:54:04.778Z,14.70
2022-09-24T18:56:34.472Z,14.72
2022-09-24T18:59:08.495Z,14.58
2022-09-24T19:01:37.927Z,14.32
2022-09-24T19:04:10.718Z,14.53
2022-09-24T19:06:39.786Z,14.29
2022-09-24T19:09:08.533Z,14.20
2022-09-24T19:11:38.476Z,14.12
2022-09-24T19:14:06.547Z,14.14
2022-09-24T19:16:34.832Z,14.10
2022-09-24T19:19:11.192Z,13.89
2022-09-24T19:21:40.511Z,13.82
2022-09-24T19:24:09.796Z,14.04
2022-09-24T19:26:39.255Z,13.74
2022-09-24T19:29:07.405Z,13.90
2022-09-24T19:31:36.927Z,13.98
2022-09-24T19:34:05.708Z,13.69
2022-09-24T19:36:42.909Z,13.76
2022-09-24T19:39:12.046Z,13.56
2022-09-24T19:41:41.434Z,13.44
2022-09-24T19:44:10.716Z,13.21
2022-09-24T19:46:39.267Z,13.26
2022-09-24T19:49:07.588Z,13.45
2022-09-24T19:51:36.578Z,13.53
2022-09-24T19:54:06.324Z,13.38
2022-09-24T19:56:34.962Z,13.39
2022-09-24T19:59:05.064Z,13.05
2022-09-24T20:01:34.262Z,12.91
2022-09-24T20:04:04.038Z,13.26
2022-09-24T20:06:33.871Z,13.30
2022-09-24T20:09:02.077Z,13.75
2022-09-24T20:11:32.344Z,13.70
2022-09-24T20:14:01.137Z,13.09
2022-09-24T20:16:34.296Z,12.95
2022-09-24T20:19:03.252Z,12.91
2022-09-24T20:21:34.347Z,12.99
2022-09-24T20:24:06.162Z,12.94
2022-09-24T20:26:51.893Z,13.10
2022-09-24T20:29:21.561Z,13.44
2022-09-24T20:31:55.332Z,13.77
2022-09-24T20:34:24.776Z,13.77
2022-09-24T20:36:53.177Z,13.13
2022-09-24T20:39:21.656Z,13.32
2022-09-24T20:41:51.700Z,13.08
2022-09-24T20:44:21.398Z,12.93
2022-09-24T20:46:49.391Z,12.99
2022-09-24T20:49:22.314Z,12.87
2022-09-24T20:51:56.232Z,13.02
2022-09-24T20:54:25.431Z,12.98
2022-09-24T20:56:54.532Z,13.27
2022-09-24T20:59:22.751Z,13.49
2022-09-24T21:01:50.978Z,13.79
2022-09-24T21:04:20.647Z,13.74
2022-09-24T21:06:50.015Z,13.88
2022-09-24T21:09:18.093Z,13.99
2022-09-24T21:11:46.114Z,13.65
2022-09-24T21:14:14.688Z,13.56
2022-09-24T21:16:42.788Z,13.55
2022-09-24T21:19:12.378Z,13.47
2022-09-24T21:21:41.928Z,13.63
2022-09-24T21:24:13.979Z,13.50
2022-09-24T21:26:42.483Z,13.51
2022-09-24T21:29:12.912Z,13.35
2022-09-24T21:31:44.141Z,13.36
2022-09-24T21:34:12.520Z,13.34
2022-09-24T21:36:45.551Z,13.41
2022-09-24T21:39:15.537Z,13.36
2022-09-24T21:41:44.017Z,13.18
2022-09-24T21:44:14.073Z,13.28
2022-09-24T21:46:43.700Z,13.28
2022-09-24T21:49:12.321Z,13.29
2022-09-24T21:51:41.076Z,13.12
2022-09-24T21:54:13.997Z,13.41
2022-09-24T21:56:41.988Z,13.17
2022-09-24T22:02:43.181Z,12.77
2022-09-24T22:05:11.616Z,12.74
2022-09-24T22:07:39.971Z,12.71
2022-09-24T22:10:08.396Z,13.06
2022-09-24T22:12:37.073Z,13.12
2022-09-24T22:15:05.379Z,13.06
2022-09-24T22:17:33.384Z,13.05
2022-09-24T22:20:02.924Z,12.93
2022-09-24T22:22:30.932Z,12.86
2022-09-24T22:24:58.927Z,12.97
2022-09-24T22:27:26.867Z,13.03
2022-09-24T22:29:54.818Z,13.28
2022-09-24T22:32:22.849Z,13.02
2022-09-24T22:35:08.221Z,12.90
2022-09-24T22:37:38.078Z,12.86
2022-09-24T22:40:06.491Z,12.72
2022-09-24T22:42:34.474Z,12.68
2022-09-24T22:45:02.497Z,12.74
2022-09-24T22:47:32.529Z,12.78
2022-09-24T22:50:00.513Z,12.79
2022-09-24T22:52:30.555Z,12.75
2022-09-24T22:55:01.979Z,12.76
2022-09-24T22:57:29.953Z,12.74
2022-09-24T23:00:01.252Z,12.71
2022-09-24T23:02:31.647Z,12.75
2022-09-24T23:04:59.664Z,12.90
2022-09-24T23:07:27.796Z,12.84
2022-09-24T23:09:55.735Z,12.83
2022-09-24T23:12:25.044Z,12.55
2022-09-24T23:14:53.581Z,12.52
2022-09-24T23:17:21.533Z,12.68
2022-09-24T23:19:52.657Z,12.77
2022-09-24T23:22:22.010Z,12.77
2022-09-24T23:24:51.500Z,12.63
2022-09-24T23:27:20.162Z,12.53
2022-09-24T23:29:52.024Z,12.78
2022-09-24T23:32:21.286Z,12.97
2022-09-24T23:34:49.237Z,12.96
2022-09-24T23:37:17.340Z,13.05
2022-09-24T23:39:45.287Z,12.58
2022-09-24T23:42:15.597Z,12.60
2022-09-24T23:44:45.262Z,12.55
2022-09-24T23:47:14.734Z,12.58
2022-09-24T23:49:42.731Z,12.72
2022-09-24T23:52:10.878Z,12.87
2022-09-24T23:54:39.599Z,12.82
2022-09-24T23:57:07.547Z,12.76
2022-09-24T23:59:35.499Z,12.74
